createdAt,value
2019-06-07T00:02:02.481Z,91.17
2019-06-07T00:04:33.215Z,92.48
2019-06-07T00:07:04.228Z,92.18
2019-06-07T00:09:34.949Z,92.95
2019-06-07T00:12:09.135Z,92.31
2019-06-07T00:14:38.612Z,93.70
2019-06-07T00:17:12.483Z,93.86
2019-06-07T00:19:41.895Z,93.54
2019-06-07T00:22:18.518Z,93.97
2019-06-07T00:24:45.360Z,94.13
2019-06-07T00:27:18.290Z,93.29
2019-06-07T00:29:48.873Z,94.88
2019-06-07T00:32:22.002Z,94.71
2019-06-07T00:34:52.325Z,94.74
2019-06-07T00:37:25.510Z,94.30
2019-06-07T00:40:13.534Z,93.37
2019-06-07T00:42:29.847Z,94.78
2019-06-07T00:45:00.845Z,94.00
2019-06-07T00:47:31.836Z,94.36
2019-06-07T00:50:02.555Z,94.08
2019-06-07T00:55:07.319Z,94.15
2019-06-07T00:57:39.416Z,94.23
2019-06-07T01:00:12.294Z,94.52
2019-06-07T01:02:43.434Z,94.54
2019-06-07T01:05:15.917Z,94.47
2019-06-07T01:07:46.917Z,94.13
2019-06-07T01:10:46.031Z,94.61
2019-06-07T01:12:51.021Z,94.78
2019-06-07T01:15:28.855Z,94.69
2019-06-07T01:20:28.653Z,94.95
2019-06-07T01:23:01.194Z,94.92
2019-06-07T01:25:31.956Z,94.79
2019-06-07T01:28:02.727Z,95.03
2019-06-07T01:30:34.738Z,94.16
2019-06-07T01:33:06.312Z,95.52
2019-06-07T01:35:37.131Z,95.61
2019-06-07T01:38:08.752Z,95.66
2019-06-07T01:40:39.421Z,94.80
2019-06-07T01:43:10.633Z,95.02
2019-06-07T01:45:43.807Z,95.81
2019-06-07T01:48:14.554Z,95.48
2019-06-07T01:50:45.283Z,96.00
2019-06-07T01:53:15.948Z,95.59
2019-06-07T01:55:46.902Z,95.25
2019-06-07T01:58:19.696Z,94.84
2019-06-07T02:00:50.680Z,95.93
2019-06-07T02:03:26.325Z,94.77
2019-06-07T02:05:54.487Z,94.91
2019-06-07T02:08:27.245Z,94.74
2019-06-07T02:10:57.952Z,95.01
2019-06-07T02:13:30.732Z,94.71
2019-06-07T02:16:01.575Z,94.67
2019-06-07T02:18:34.620Z,94.53
2019-06-07T02:21:05.084Z,94.75
2019-06-07T02:23:36.161Z,94.73
2019-06-07T02:26:07.144Z,94.41
2019-06-07T02:28:45.351Z,94.35
2019-06-07T02:31:10.488Z,93.91
2019-06-07T02:33:41.365Z,93.84
2019-06-07T02:36:12.047Z,93.69
2019-06-07T02:38:42.767Z,93.22
2019-06-07T02:41:13.650Z,92.88
2019-06-07T02:43:44.827Z,92.48
2019-06-07T02:46:31.890Z,92.68
2019-06-07T02:48:56.399Z,92.41
2019-06-07T02:51:32.656Z,92.19
2019-06-07T02:53:59.709Z,91.89
2019-06-07T02:56:45.011Z,91.47
2019-06-07T02:59:05.003Z,91.06
2019-06-07T03:01:41.354Z,90.75
2019-06-07T03:04:09.715Z,90.46
2019-06-07T03:06:43.905Z,90.17
2019-06-07T03:09:15.153Z,89.93
2019-06-07T03:11:48.837Z,89.67
2019-06-07T03:14:22.356Z,89.33
2019-06-07T03:16:56.963Z,89.14
2019-06-07T03:19:31.284Z,88.86
2019-06-07T03:22:04.639Z,88.34
2019-06-07T03:24:41.682Z,88.05
2019-06-07T03:27:34.053Z,87.80
2019-06-07T03:29:42.454Z,87.50
2019-06-07T03:32:13.178Z,87.91
2019-06-07T03:34:44.072Z,87.66
2019-06-07T03:37:14.759Z,87.80
2019-06-07T03:39:45.665Z,87.22
2019-06-07T03:42:16.327Z,87.33
2019-06-07T03:44:47.068Z,87.77
2019-06-07T03:47:18.509Z,87.19
2019-06-07T03:49:49.256Z,87.26
2019-06-07T03:52:20.001Z,86.99
2019-06-07T03:54:51.280Z,86.74
2019-06-07T03:57:22.040Z,86.11
2019-06-07T03:59:52.822Z,85.84
2019-06-07T04:02:23.536Z,86.42
2019-06-07T04:04:54.384Z,85.99
2019-06-07T04:07:25.281Z,85.33
2019-06-07T04:09:56.045Z,84.81
2019-06-07T04:12:28.409Z,85.05
2019-06-07T04:15:00.333Z,84.64
2019-06-07T04:17:33.844Z,83.87
2019-06-07T04:20:05.252Z,83.71
2019-06-07T04:22:39.737Z,83.81
2019-06-07T04:25:11.067Z,83.40
2019-06-07T04:27:41.936Z,82.64
2019-06-07T04:30:15.180Z,82.65
2019-06-07T04:32:45.920Z,81.91
2019-06-07T04:35:16.668Z,81.37
2019-06-07T04:37:47.640Z,81.65
2019-06-07T04:40:19.830Z,81.82
2019-06-07T04:42:50.884Z,81.77
2019-06-07T04:45:33.749Z,82.05
2019-06-07T04:47:56.051Z,81.76
2019-06-07T04:50:33.633Z,81.44
2019-06-07T04:53:02.818Z,81.76
2019-06-07T04:55:36.266Z,81.42
2019-06-07T04:58:06.831Z,80.60
2019-06-07T05:01:01.355Z,79.76
2019-06-07T05:03:11.042Z,79.89
2019-06-07T05:05:43.893Z,80.51
2019-06-07T05:08:27.734Z,80.93
2019-06-07T05:10:47.224Z,80.57
2019-06-07T05:13:18.009Z,80.02
2019-06-07T05:15:48.652Z,79.61
2019-06-07T05:18:19.720Z,78.67
2019-06-07T05:20:50.548Z,78.55
2019-06-07T05:24:00.130Z,79.47
2019-06-07T05:25:53.947Z,78.97
2019-06-07T05:28:24.811Z,79.61
2019-06-07T05:31:04.504Z,79.02
2019-06-07T05:33:28.263Z,77.77
2019-06-07T05:35:59.059Z,77.27
2019-06-07T05:38:31.027Z,75.63
2019-06-07T05:41:01.875Z,76.02
2019-06-07T05:43:34.985Z,76.83
2019-06-07T05:46:05.382Z,76.33
2019-06-07T05:48:40.782Z,76.54
2019-06-07T05:51:10.317Z,76.36
2019-06-07T05:53:43.122Z,75.60
2019-06-07T05:56:14.394Z,75.70
2019-06-07T05:58:45.807Z,77.09
2019-06-07T06:03:48.918Z,78.63
2019-06-07T06:06:19.809Z,78.65
2019-06-07T06:08:50.677Z,78.97
2019-06-07T06:11:21.414Z,79.82
2019-06-07T06:14:06.595Z,79.98
2019-06-07T06:16:25.326Z,78.98
2019-06-07T06:18:56.145Z,78.79
2019-06-07T06:21:27.220Z,78.28
2019-06-07T06:23:58.393Z,77.87
2019-06-07T06:26:29.923Z,77.74
2019-06-07T06:29:00.965Z,78.74
2019-06-07T06:31:32.597Z,80.17
2019-06-07T06:34:03.571Z,79.69
2019-06-07T06:36:35.029Z,79.64
2019-06-07T06:39:07.812Z,79.28
2019-06-07T06:41:53.720Z,78.30
2019-06-07T06:44:11.204Z,78.69
2019-06-07T06:46:46.280Z,79.10
2019-06-07T06:49:14.518Z,77.38
2019-06-07T06:51:47.843Z,77.78
2019-06-07T06:54:39.558Z,77.98
2019-06-07T06:56:52.853Z,80.00
2019-06-07T06:59:41.220Z,80.52
2019-06-07T07:01:56.253Z,80.56
2019-06-07T07:04:28.021Z,81.12
2019-06-07T07:06:59.607Z,81.65
2019-06-07T07:09:31.148Z,82.26
2019-06-07T07:12:12.205Z,80.70
2019-06-07T07:14:34.812Z,81.78
2019-06-07T07:17:05.672Z,80.75
2019-06-07T07:19:36.465Z,81.95
2019-06-07T07:22:08.371Z,81.15
2019-06-07T07:24:39.366Z,79.91
2019-06-07T07:27:10.323Z,80.76
2019-06-07T07:29:44.543Z,82.22
2019-06-07T07:32:14.867Z,82.40
2019-06-07T07:34:49.430Z,83.23
2019-06-07T07:37:18.318Z,83.32
2019-06-07T07:39:53.341Z,82.73
2019-06-07T07:42:21.988Z,82.95
2019-06-07T07:44:55.096Z,81.87
2019-06-07T07:47:25.343Z,82.02
2019-06-07T07:49:59.065Z,80.75
2019-06-07T07:52:29.889Z,78.62
2019-06-07T07:55:01.202Z,75.23
2019-06-07T07:57:34.835Z,72.00
2019-06-07T08:00:48.653Z,68.11
2019-06-07T08:02:41.908Z,67.29
2019-06-07T08:05:25.163Z,59.64
2019-06-07T08:07:49.909Z,59.14
2019-06-07T08:10:21.285Z,56.90
2019-06-07T08:13:17.552Z,58.51
2019-06-07T08:15:25.184Z,55.77
2019-06-07T08:18:01.170Z,58.28
2019-06-07T08:20:28.856Z,61.67
2019-06-07T08:23:01.397Z,59.03
2019-06-07T08:25:32.334Z,56.68
2019-06-07T08:28:10.440Z,55.20
2019-06-07T08:30:54.966Z,55.63
2019-06-07T08:33:25.898Z,52.41
2019-06-07T08:36:11.863Z,50.33
2019-06-07T08:38:27.311Z,51.27
2019-06-07T08:40:59.138Z,49.66
2019-06-07T08:43:26.467Z,45.42
2019-06-07T08:46:02.215Z,40.58
2019-06-07T08:48:30.542Z,43.55
2019-06-07T08:51:08.264Z,44.03
2019-06-07T08:53:34.895Z,44.29
2019-06-07T08:56:10.512Z,43.51
2019-06-07T08:58:39.006Z,43.23
2019-06-07T09:01:09.898Z,44.79
2019-06-07T09:03:41.534Z,47.69
2019-06-07T09:07:01.134Z,49.03
2019-06-07T09:08:45.307Z,49.62
2019-06-07T09:11:16.190Z,46.69
2019-06-07T09:13:47.164Z,45.14
2019-06-07T09:16:18.526Z,43.98
2019-06-07T09:18:49.302Z,48.48
2019-06-07T09:21:20.467Z,51.47
2019-06-07T09:23:51.509Z,47.07
2019-06-07T09:26:22.770Z,45.34
2019-06-07T09:28:57.637Z,43.56
2019-06-07T09:31:51.270Z,44.31
2019-06-07T09:34:08.643Z,43.95
2019-06-07T09:36:32.777Z,46.07
2019-06-07T09:39:09.568Z,49.62
2019-06-07T09:41:47.594Z,46.94
2019-06-07T09:44:23.770Z,42.41
2019-06-07T09:46:44.430Z,42.48
2019-06-07T09:49:28.982Z,37.69
2019-06-07T09:51:48.620Z,39.61
2019-06-07T09:56:52.354Z,39.99
2019-06-07T09:59:23.297Z,39.39
2019-06-07T10:01:53.939Z,41.45
2019-06-07T10:04:31.342Z,39.93
2019-06-07T10:07:04.025Z,39.95
2019-06-07T10:12:04.551Z,45.78
2019-06-07T10:14:36.589Z,43.11
2019-06-07T10:17:07.490Z,47.76
2019-06-07T10:19:38.507Z,45.99
2019-06-07T10:22:09.793Z,42.97
2019-06-07T10:24:40.956Z,38.93
2019-06-07T10:27:12.278Z,40.58
2019-06-07T10:29:43.295Z,45.70
2019-06-07T10:32:14.365Z,44.40
2019-06-07T10:34:45.084Z,43.60
2019-06-07T10:37:16.098Z,44.79
2019-06-07T10:39:49.089Z,42.60
2019-06-07T10:42:20.593Z,43.64
2019-06-07T10:44:52.465Z,44.34
2019-06-07T10:47:23.535Z,39.46
2019-06-07T10:49:54.531Z,35.99
2019-06-07T10:52:25.390Z,37.42
2019-06-07T10:54:56.584Z,39.58
2019-06-07T10:57:27.610Z,45.55
2019-06-07T10:59:58.602Z,46.58
2019-06-07T11:02:29.720Z,46.30
2019-06-07T11:05:01.693Z,43.35
2019-06-07T11:07:33.289Z,38.30
2019-06-07T11:10:14.967Z,41.01
2019-06-07T11:12:40.887Z,44.13
2019-06-07T11:15:14.988Z,42.24
2019-06-07T11:17:46.119Z,43.90
2019-06-07T11:20:18.950Z,45.60
2019-06-07T11:22:49.751Z,46.71
2019-06-07T11:25:21.157Z,43.41
2019-06-07T11:27:51.943Z,42.43
2019-06-07T11:30:24.083Z,41.77
2019-06-07T11:32:54.944Z,42.79
2019-06-07T11:35:25.880Z,43.69
2019-06-07T11:37:56.863Z,43.45
2019-06-07T11:40:34.839Z,41.10
2019-06-07T11:43:00.405Z,39.53
2019-06-07T11:45:31.227Z,37.78
2019-06-07T11:48:02.994Z,33.45
2019-06-07T11:50:33.990Z,31.68
2019-06-07T11:53:06.492Z,29.92
2019-06-07T11:55:37.662Z,29.05
2019-06-07T11:58:14.390Z,32.64
2019-06-07T12:00:43.018Z,32.26
2019-06-07T12:03:14.009Z,31.85
2019-06-07T12:05:44.771Z,32.28
2019-06-07T12:08:16.089Z,31.17
2019-06-07T12:10:47.326Z,32.08
2019-06-07T12:13:18.992Z,31.25
2019-06-07T12:15:50.083Z,31.29
2019-06-07T12:18:20.972Z,30.97
2019-06-07T12:20:51.734Z,31.41
2019-06-07T12:23:22.684Z,33.47
2019-06-07T12:25:53.528Z,31.41
2019-06-07T12:28:24.258Z,32.73
2019-06-07T12:30:55.373Z,33.32
2019-06-07T12:33:26.590Z,32.81
2019-06-07T12:35:57.621Z,35.42
2019-06-07T12:38:28.822Z,34.71
2019-06-07T12:41:00.267Z,34.48
2019-06-07T12:43:31.706Z,34.11
2019-06-07T12:46:03.122Z,35.88
2019-06-07T12:48:34.786Z,35.75
2019-06-07T12:51:06.823Z,37.03
2019-06-07T12:53:38.937Z,38.68
2019-06-07T12:56:09.849Z,36.81
2019-06-07T12:58:41.238Z,36.61
2019-06-07T13:01:15.954Z,36.57
2019-06-07T13:03:48.782Z,37.53
2019-06-07T13:06:19.760Z,37.64
2019-06-07T13:08:50.859Z,37.70
2019-06-07T13:11:28.151Z,37.13
2019-06-07T13:13:54.834Z,38.65
2019-06-07T13:16:25.925Z,39.22
2019-06-07T13:18:56.728Z,41.87
2019-06-07T13:21:28.662Z,39.92
2019-06-07T13:23:59.861Z,38.23
2019-06-07T13:26:31.291Z,37.14
2019-06-07T13:29:02.658Z,37.41
2019-06-07T13:31:33.660Z,38.51
2019-06-07T13:34:04.772Z,37.79
2019-06-07T13:36:35.702Z,36.87
2019-06-07T13:39:08.489Z,37.38
2019-06-07T13:41:43.236Z,37.38
2019-06-07T13:44:14.925Z,37.38
2019-06-07T13:46:45.948Z,35.98
2019-06-07T13:49:19.423Z,34.00
2019-06-07T13:51:51.316Z,34.50
2019-06-07T13:54:24.801Z,36.97
2019-06-07T13:57:01.959Z,35.10
2019-06-07T13:59:31.070Z,35.50
2019-06-07T14:02:02.588Z,34.14
2019-06-07T14:04:34.137Z,37.80
2019-06-07T14:07:05.158Z,37.29
2019-06-07T14:09:36.079Z,36.50
2019-06-07T14:12:07.991Z,37.13
2019-06-07T14:14:39.557Z,36.93
2019-06-07T14:17:11.424Z,35.90
2019-06-07T14:19:42.859Z,36.38
2019-06-07T14:22:14.145Z,36.19
2019-06-07T14:24:45.066Z,36.76
2019-06-07T14:27:16.424Z,36.32
2019-06-07T14:29:47.494Z,35.14
2019-06-07T14:32:18.382Z,35.20
2019-06-07T14:34:49.226Z,35.22
2019-06-07T14:37:20.890Z,35.90
2019-06-07T14:39:51.696Z,35.49
2019-06-07T14:42:23.437Z,36.35
2019-06-07T14:44:54.406Z,36.99
2019-06-07T14:47:26.062Z,36.99
2019-06-07T14:49:56.926Z,36.89
2019-06-07T14:52:28.453Z,37.23
2019-06-07T14:55:00.472Z,37.01
2019-06-07T14:57:31.341Z,36.86
2019-06-07T15:00:10.516Z,37.04
2019-06-07T15:02:38.366Z,36.53
2019-06-07T15:05:09.976Z,35.77
2019-06-07T15:07:41.765Z,36.34
2019-06-07T15:10:13.443Z,36.21
2019-06-07T15:12:44.140Z,35.33
2019-06-07T15:15:15.014Z,35.00
2019-06-07T15:17:45.939Z,34.27
2019-06-07T15:20:16.988Z,33.97
2019-06-07T15:22:48.034Z,35.33
2019-06-07T15:25:19.049Z,34.62
2019-06-07T15:27:49.793Z,33.69
2019-06-07T15:30:21.371Z,35.27
2019-06-07T15:32:52.219Z,35.09
2019-06-07T15:35:23.322Z,34.05
2019-06-07T15:37:55.715Z,34.74
2019-06-07T15:40:26.749Z,34.05
2019-06-07T15:42:57.589Z,35.24
2019-06-07T15:45:29.368Z,35.49
2019-06-07T15:48:00.293Z,36.69
2019-06-07T15:50:32.196Z,38.05
2019-06-07T15:53:03.189Z,39.78
2019-06-07T15:55:39.147Z,39.55
2019-06-07T15:58:06.640Z,41.22
2019-06-07T16:00:37.502Z,41.92
2019-06-07T16:03:08.586Z,42.34
2019-06-07T16:05:40.494Z,42.24
2019-06-07T16:08:11.822Z,42.67
2019-06-07T16:10:43.077Z,42.76
2019-06-07T16:13:14.319Z,42.96
2019-06-07T16:15:45.186Z,43.53
2019-06-07T16:18:16.011Z,43.12
2019-06-07T16:20:46.972Z,43.04
2019-06-07T16:23:17.653Z,43.75
2019-06-07T16:25:49.142Z,44.04
2019-06-07T16:28:21.479Z,43.59
2019-06-07T16:30:53.123Z,44.10
2019-06-07T16:33:23.985Z,44.11
2019-06-07T16:35:54.695Z,43.51
2019-06-07T16:38:25.506Z,43.19
2019-06-07T16:40:56.333Z,42.97
2019-06-07T16:43:27.498Z,42.72
2019-06-07T16:45:58.603Z,43.20
2019-06-07T16:48:29.680Z,43.47
2019-06-07T16:51:00.847Z,42.60
2019-06-07T16:53:31.909Z,42.31
2019-06-07T16:56:02.803Z,40.17
2019-06-07T16:58:33.724Z,40.01
2019-06-07T17:01:05.683Z,40.85
2019-06-07T17:03:37.312Z,41.92
2019-06-07T17:06:08.586Z,41.30
2019-06-07T17:08:40.137Z,41.31
2019-06-07T17:11:11.269Z,39.51
2019-06-07T17:13:42.685Z,39.12
2019-06-07T17:16:13.936Z,39.02
2019-06-07T17:18:45.557Z,39.80
2019-06-07T17:21:18.135Z,40.23
2019-06-07T17:23:49.461Z,40.00
2019-06-07T17:26:20.355Z,39.45
2019-06-07T17:28:52.653Z,39.03
2019-06-07T17:31:23.557Z,39.93
2019-06-07T17:33:54.341Z,41.38
2019-06-07T17:36:25.476Z,42.92
2019-06-07T17:38:56.561Z,42.57
2019-06-07T17:41:27.421Z,42.72
2019-06-07T17:44:00.382Z,42.37
2019-06-07T17:46:31.654Z,43.13
2019-06-07T17:49:02.546Z,44.07
2019-06-07T17:51:33.451Z,45.06
2019-06-07T17:54:07.337Z,45.85
2019-06-07T17:56:40.207Z,46.34
2019-06-07T17:59:11.045Z,47.33
2019-06-07T18:02:01.878Z,47.17
2019-06-07T18:04:14.873Z,47.81
2019-06-07T18:06:47.543Z,49.57
2019-06-07T18:09:19.152Z,49.85
2019-06-07T18:11:50.234Z,50.24
2019-06-07T18:14:21.657Z,50.31
2019-06-07T18:16:54.852Z,50.28
2019-06-07T18:19:25.717Z,50.67
2019-06-07T18:21:58.958Z,51.62
2019-06-07T18:24:29.088Z,52.36
2019-06-07T18:26:59.993Z,53.41
2019-06-07T18:29:33.653Z,53.34
2019-06-07T18:32:04.433Z,53.34
2019-06-07T18:34:35.501Z,53.87
2019-06-07T18:37:06.611Z,53.70
2019-06-07T18:39:38.173Z,53.50
2019-06-07T18:42:09.401Z,54.29
2019-06-07T18:44:40.255Z,53.72
2019-06-07T18:47:11.633Z,54.35
2019-06-07T18:49:42.725Z,56.50
2019-06-07T18:52:15.350Z,57.30
2019-06-07T18:54:46.842Z,59.74
2019-06-07T18:57:18.900Z,60.70
2019-06-07T18:59:52.256Z,60.82
2019-06-07T19:02:24.051Z,61.22
2019-06-07T19:04:56.350Z,61.90
2019-06-07T19:07:27.965Z,62.55
2019-06-07T19:09:59.531Z,63.18
2019-06-07T19:12:32.168Z,64.26
2019-06-07T19:15:04.044Z,62.48
2019-06-07T19:17:35.952Z,62.75
2019-06-07T19:20:08.469Z,63.45
2019-06-07T19:22:39.444Z,63.26
2019-06-07T19:25:10.925Z,63.29
2019-06-07T19:27:42.443Z,63.30
2019-06-07T19:30:14.864Z,64.24
2019-06-07T19:32:45.684Z,63.93
2019-06-07T19:35:18.705Z,65.79
2019-06-07T19:37:50.020Z,66.54
2019-06-07T19:40:21.452Z,65.01
2019-06-07T19:42:53.994Z,67.09
2019-06-07T19:45:30.730Z,66.72
2019-06-07T19:48:00.778Z,68.87
2019-06-07T19:50:33.328Z,70.15
2019-06-07T19:53:04.340Z,72.05
2019-06-07T19:55:35.326Z,72.63
2019-06-07T19:58:06.681Z,72.25
2019-06-07T20:00:38.251Z,71.13
2019-06-07T20:03:10.213Z,73.54
2019-06-07T20:05:43.104Z,75.00
2019-06-07T20:08:13.943Z,75.98
2019-06-07T20:10:44.883Z,78.11
2019-06-07T20:13:18.986Z,79.99
2019-06-07T20:15:50.447Z,82.40
2019-06-07T20:18:21.336Z,80.13
2019-06-07T20:20:52.607Z,78.41
2019-06-07T20:23:23.984Z,80.76
2019-06-07T20:25:55.290Z,78.33
2019-06-07T20:28:26.174Z,75.27
2019-06-07T20:30:57.701Z,74.68
2019-06-07T20:33:28.393Z,77.85
2019-06-07T20:36:00.465Z,81.74
2019-06-07T20:38:31.759Z,81.65
2019-06-07T20:41:03.297Z,85.24
2019-06-07T20:43:34.372Z,86.81
2019-06-07T20:46:06.675Z,86.59
2019-06-07T20:48:38.294Z,87.28
2019-06-07T20:51:11.549Z,86.71
2019-06-07T20:53:46.297Z,86.88
2019-06-07T20:56:17.328Z,85.78
2019-06-07T20:58:49.410Z,85.62
2019-06-07T21:01:20.231Z,84.73
2019-06-07T21:03:51.124Z,83.38
2019-06-07T21:06:21.903Z,84.03
2019-06-07T21:08:52.893Z,87.97
2019-06-07T21:11:24.291Z,89.00
2019-06-07T21:13:55.243Z,90.66
2019-06-07T21:16:27.109Z,91.90
2019-06-07T21:18:58.517Z,91.88
2019-06-07T21:21:31.516Z,93.51
2019-06-07T21:24:02.559Z,91.93
2019-06-07T21:26:33.828Z,91.79
2019-06-07T21:29:05.385Z,91.75
2019-06-07T21:31:36.474Z,91.09
2019-06-07T21:34:11.574Z,91.91
2019-06-07T21:36:41.302Z,91.96
2019-06-07T21:39:12.414Z,93.19
2019-06-07T21:41:43.463Z,94.02
2019-06-07T21:44:14.208Z,94.60
2019-06-07T21:46:45.182Z,94.56
2019-06-07T21:49:16.235Z,95.58
2019-06-07T21:51:47.110Z,95.21
2019-06-07T21:54:18.063Z,95.87
2019-06-07T21:56:49.183Z,96.22
2019-06-07T21:59:20.342Z,97.14
2019-06-07T22:01:52.953Z,97.73
2019-06-07T22:04:24.120Z,98.14
2019-06-07T22:06:55.080Z,97.98
2019-06-07T22:09:26.305Z,97.61
2019-06-07T22:11:57.087Z,97.33
2019-06-07T22:14:28.177Z,98.29
2019-06-07T22:16:59.397Z,98.45
2019-06-07T22:19:30.232Z,98.55
2019-06-07T22:22:03.310Z,98.56
2019-06-07T22:24:34.930Z,98.60
2019-06-07T22:27:07.062Z,97.30
2019-06-07T22:29:38.243Z,98.26
2019-06-07T22:32:08.904Z,98.38
2019-06-07T22:34:39.742Z,97.92
2019-06-07T22:37:11.306Z,98.42
2019-06-07T22:39:42.377Z,97.30
2019-06-07T22:42:15.290Z,97.09
2019-06-07T22:44:46.117Z,99.28
2019-06-07T22:47:18.303Z,97.68
2019-06-07T22:49:49.376Z,98.56
2019-06-07T22:52:20.248Z,98.32
2019-06-07T22:54:51.371Z,99.47
2019-06-07T22:57:23.966Z,99.12
2019-06-07T22:59:56.977Z,99.65
2019-06-07T23:02:27.842Z,99.50
2019-06-07T23:04:58.743Z,99.08
2019-06-07T23:07:29.493Z,100.00
2019-06-07T23:10:00.789Z,100.00
2019-06-07T23:12:31.759Z,100.00
2019-06-07T23:15:02.583Z,100.00
2019-06-07T23:17:33.476Z,100.00
2019-06-07T23:20:11.861Z,100.00
2019-06-07T23:22:43.375Z,100.00
2019-06-07T23:25:18.859Z,100.00
2019-06-07T23:27:47.943Z,100.00
2019-06-07T23:30:21.712Z,100.00
2019-06-07T23:32:52.455Z,100.00
2019-06-07T23:35:23.600Z,100.00
2019-06-07T23:37:54.547Z,100.00
2019-06-07T23:40:25.327Z,100.00
2019-06-07T23:42:56.704Z,100.00
2019-06-07T23:45:27.827Z,100.00
2019-06-07T23:47:58.645Z,100.00
2019-06-07T23:50:29.361Z,100.00
2019-06-07T23:53:00.147Z,100.00
2019-06-07T23:55:31.163Z,100.00
2019-06-07T23:58:01.968Z,100.00
